Time;durP1;ratioP1;P1;durP2;ratioP2;P2;SDS_P1;SDS_P2;PMS_P1;PMS_P2;Temp;Humidity;BMP_temperature;BMP_pressure;BME280_temperature;BME280_humidity;BME280_pressure;Samples;Min_cycle;Max_cycle;Signal;HPM_P1;HPM_P2
2022/08/25 00:00:42;;;;;;;11.30;3.20;;;;;;;19.34;80.46;100206.23;213695;1277;140650;-68
2022/08/25 00:05:49;;;;;;;5.20;2.40;;;;;;;19.36;80.62;100200.91;213369;1277;141675;-67
2022/08/25 00:10:52;;;;;;;12.00;4.10;;;;;;;19.33;80.57;100195.75;213082;1277;140892;-67
2022/08/25 00:16:05;;;;;;;4.90;3.40;;;;;;;19.27;80.74;100195.69;213097;1277;141372;-68
2022/08/25 00:21:09;;;;;;;7.30;3.60;;;;;;;19.28;81.17;100189.52;213173;1277;143639;-67
2022/08/25 00:26:14;;;;;;;4.00;3.00;;;;;;;19.37;81.24;100188.91;215786;1277;140940;-67
2022/08/25 00:31:22;;;;;;;7.30;3.90;;;;;;;19.46;81.40;100192.36;215699;1277;140835;-68
2022/08/25 00:36:40;;;;;;;6.80;3.30;;;;;;;19.53;81.31;100193.38;215846;1277;143937;-69
2022/08/25 00:41:44;;;;;;;8.90;3.60;;;;;;;19.59;81.38;100192.98;214645;1276;141749;-67
2022/08/25 00:46:51;;;;;;;10.10;3.70;;;;;;;19.65;81.31;100180.70;215041;1277;140976;-69
2022/08/25 00:52:03;;;;;;;9.30;3.80;;;;;;;19.66;81.29;100167.77;215614;1276;141982;-70
2022/08/25 00:57:10;;;;;;;10.20;3.60;;;;;;;19.58;81.06;100168.94;214506;1277;141449;-67
2022/08/25 01:02:15;;;;;;;7.40;3.50;;;;;;;19.59;81.44;100167.73;213487;1277;141189;-68
2022/08/25 01:07:22;;;;;;;11.40;3.90;;;;;;;19.57;81.38;100180.67;213822;1277;140973;-67
2022/08/25 01:12:26;;;;;;;3.80;3.30;;;;;;;19.59;81.67;100187.69;212946;1277;140705;-66
2022/08/25 01:17:49;;;;;;;7.50;4.10;;;;;;;19.62;81.80;100188.14;213716;1277;141725;-68
2022/08/25 01:22:55;;;;;;;5.60;3.20;;;;;;;19.68;82.14;100187.34;213509;1277;222255;-67
2022/08/25 01:27:59;;;;;;;9.10;3.70;;;;;;;19.70;82.08;100179.80;213252;1277;140978;-68
2022/08/25 01:33:08;;;;;;;5.80;4.30;;;;;;;19.71;82.00;100182.29;213364;1276;140717;-67
2022/08/25 01:38:14;;;;;;;9.50;4.00;;;;;;;19.66;81.78;100184.05;212900;1277;142666;-68
2022/08/25 01:43:34;;;;;;;7.30;4.40;;;;;;;19.62;82.00;100188.25;213638;1277;141577;-68
2022/08/25 01:48:38;;;;;;;6.40;3.90;;;;;;;19.56;81.89;100186.59;212181;1277;1656585;-67
2022/08/25 01:53:43;;;;;;;5.20;2.90;;;;;;;19.53;81.92;100182.08;213399;1276;141335;-68
2022/08/25 01:58:48;;;;;;;8.30;3.40;;;;;;;19.52;81.88;100180.63;213232;1277;140972;-68
2022/08/25 02:03:55;;;;;;;9.60;4.10;;;;;;;19.48;82.03;100180.56;213285;1277;141235;-68
2022/08/25 02:09:07;;;;;;;14.40;3.20;;;;;;;19.47;82.08;100183.44;213307;1277;142127;-67
2022/08/25 02:14:13;;;;;;;6.90;4.80;;;;;;;19.48;82.36;100183.86;214655;1277;140853;-67
2022/08/25 02:19:18;;;;;;;7.30;3.10;;;;;;;19.45;82.18;100183.67;215255;1276;141235;-68
2022/08/25 02:24:22;;;;;;;8.30;3.80;;;;;;;19.37;82.19;100183.98;215652;1277;141081;-67
2022/08/25 02:29:26;;;;;;;8.00;4.10;;;;;;;19.46;82.50;100184.80;215645;1276;140492;-68
2022/08/25 02:34:30;;;;;;;5.40;3.50;;;;;;;19.52;82.39;100180.24;215823;1277;142613;-68
2022/08/25 02:39:35;;;;;;;7.00;3.90;;;;;;;19.61;82.52;100181.39;215873;1276;140677;-67
2022/08/25 02:44:40;;;;;;;8.30;3.30;;;;;;;19.68;82.47;100183.27;215565;1277;142313;-68
2022/08/25 02:49:44;;;;;;;5.70;3.60;;;;;;;19.67;82.27;100187.29;215576;1277;141378;-68
2022/08/25 02:54:49;;;;;;;5.80;3.50;;;;;;;19.71;82.36;100190.56;215259;1277;141111;-67
2022/08/25 02:59:53;;;;;;;9.50;4.50;;;;;;;19.72;82.30;100195.58;214213;1276;143856;-67
2022/08/25 03:04:57;;;;;;;5.80;3.40;;;;;;;19.64;82.23;100193.92;213783;1277;140199;-66
2022/08/25 03:10:07;;;;;;;8.20;3.80;;;;;;;19.62;82.44;100192.52;213804;1277;141811;-67
2022/08/25 03:15:15;;;;;;;8.20;3.80;;;;;;;19.64;82.72;100189.10;213283;1277;142135;-67
2022/08/25 03:20:23;;;;;;;6.90;4.40;;;;;;;19.62;82.68;100186.36;213334;1277;142437;-66
2022/08/25 03:30:52;;;;;;;4.50;3.70;;;;;;;19.54;82.79;100189.37;213304;1277;143668;-65
2022/08/25 03:35:58;;;;;;;7.20;4.30;;;;;;;19.53;83.05;100186.13;213284;1277;142836;-68
2022/08/25 03:41:14;;;;;;;11.70;4.20;;;;;;;19.55;83.37;100191.52;213377;1277;142977;-68
2022/08/25 03:46:24;;;;;;;6.90;3.90;;;;;;;19.61;83.39;100195.73;213346;1277;252201;-68
2022/08/25 03:51:32;;;;;;;9.60;5.30;;;;;;;19.63;83.28;100193.39;213343;1277;140545;-68
2022/08/25 03:56:37;;;;;;;9.70;5.30;;;;;;;19.67;83.24;100194.44;213368;1277;140461;-68
2022/08/25 04:01:43;;;;;;;11.60;4.50;;;;;;;19.63;83.01;100193.71;213467;1277;141011;-68
2022/08/25 04:06:47;;;;;;;11.60;5.70;;;;;;;19.52;82.89;100193.00;213568;1277;163151;-68
2022/08/25 04:11:52;;;;;;;8.60;4.10;;;;;;;19.51;83.17;100190.90;213222;1277;140635;-68
2022/08/25 04:16:56;;;;;;;6.40;4.70;;;;;;;19.49;82.97;100184.52;214390;1276;141159;-68
2022/08/25 04:21:59;;;;;;;11.80;4.60;;;;;;;19.50;83.25;100187.71;215310;1277;152383;-66
2022/08/25 04:27:05;;;;;;;9.30;4.80;;;;;;;19.58;83.17;100186.12;215539;1276;141036;-68
2022/08/25 04:32:10;;;;;;;9.10;5.00;;;;;;;19.67;83.32;100181.77;215237;1276;141351;-67
2022/08/25 04:37:14;;;;;;;4.70;4.30;;;;;;;19.76;83.24;100184.09;215383;1276;142271;-66
2022/08/25 04:42:19;;;;;;;11.80;5.30;;;;;;;19.86;83.46;100184.53;214804;1277;141010;-67
2022/08/25 04:47:26;;;;;;;6.20;4.50;;;;;;;19.95;83.32;100181.69;214969;1278;141142;-66
2022/08/25 04:52:32;;;;;;;9.00;5.30;;;;;;;19.95;82.88;100174.75;214041;1277;141288;-67
2022/08/25 04:57:37;;;;;;;8.00;5.10;;;;;;;19.96;83.19;100170.84;214327;1277;142042;-67
2022/08/25 05:02:44;;;;;;;9.10;6.10;;;;;;;20.05;83.24;100174.60;213109;1277;141466;-67
2022/08/25 05:07:48;;;;;;;8.50;6.40;;;;;;;20.08;83.37;100169.59;213571;1277;142562;-67
2022/08/25 05:12:54;;;;;;;7.40;5.90;;;;;;;20.29;83.92;100169.95;213473;1277;161133;-67
2022/08/25 05:17:59;;;;;;;;;;;;;;;20.49;83.83;100166.06;213412;1277;142195;-67
2022/08/25 05:23:04;;;;;;;10.30;6.20;;;;;;;20.65;83.88;100161.37;214106;1276;127893;-67
2022/08/25 05:28:13;;;;;;;10.90;6.80;;;;;;;20.81;83.71;100157.02;213318;1277;142138;-67
2022/08/25 05:33:17;;;;;;;;;;;;;;;20.95;83.79;100161.17;213344;1278;143151;-67
2022/08/25 05:38:22;;;;;;;12.60;5.70;;;;;;;21.09;83.68;100160.09;214012;1274;127812;-67
2022/08/25 05:43:27;;;;;;;13.20;5.30;;;;;;;21.22;83.38;100154.71;213666;1276;141963;-67
2022/08/25 05:48:32;;;;;;;12.10;4.10;;;;;;;21.41;83.25;100154.41;213310;1277;142171;-67
2022/08/25 05:53:40;;;;;;;5.70;4.00;;;;;;;21.64;82.88;100157.84;213333;1277;142717;-67
2022/08/25 05:58:46;;;;;;;9.70;4.30;;;;;;;21.97;82.70;100168.20;213144;1277;142927;-68
2022/08/25 06:03:53;;;;;;;8.80;4.40;;;;;;;22.29;82.40;100170.72;213994;1277;140229;-67
2022/08/25 06:08:57;;;;;;;14.80;4.30;;;;;;;22.53;81.76;100174.41;213723;1277;140881;-67
2022/08/25 06:14:02;;;;;;;14.80;4.80;;;;;;;22.75;80.67;100178.42;214966;1276;140627;-66
2022/08/25 06:19:08;;;;;;;6.80;4.80;;;;;;;23.12;80.61;100174.02;215631;1277;140111;-67
2022/08/25 06:24:14;;;;;;;10.00;3.70;;;;;;;23.56;79.77;100173.69;215408;1277;141499;-67
2022/08/25 06:29:19;;;;;;;17.70;4.80;;;;;;;23.92;79.22;100174.90;215837;1277;140346;-67
2022/08/25 06:34:24;;;;;;;13.60;4.20;;;;;;;24.13;78.53;100174.71;215861;1276;142096;-68
2022/08/25 06:39:28;;;;;;;9.70;4.30;;;;;;;24.25;77.81;100180.45;215163;1277;140425;-67
2022/08/25 06:44:35;;;;;;;22.40;5.20;;;;;;;24.37;77.19;100176.26;213945;1277;140616;-68
2022/08/25 06:49:41;;;;;;;15.80;4.80;;;;;;;24.57;76.62;100177.65;214108;1277;142242;-68
2022/08/25 06:54:47;;;;;;;13.50;5.30;;;;;;;25.07;75.74;100178.60;213678;1277;140197;-68
2022/08/25 06:59:52;;;;;;;10.60;5.00;;;;;;;25.49;74.85;100177.38;213480;1277;141850;-67
2022/08/25 07:04:57;;;;;;;10.20;4.00;;;;;;;25.85;74.07;100182.53;213394;1277;140807;-67
2022/08/25 07:10:03;;;;;;;22.20;5.30;;;;;;;26.09;73.49;100183.23;213343;1277;139952;-69
2022/08/25 07:15:07;;;;;;;15.30;4.60;;;;;;;26.34;73.00;100182.40;213333;1277;140447;-68
2022/08/25 07:20:28;;;;;;;12.10;4.60;;;;;;;26.63;72.80;100186.20;213383;1277;140174;-67
2022/08/25 07:25:34;;;;;;;14.40;4.20;;;;;;;26.88;71.73;100185.48;213755;1277;140963;-68
2022/08/25 07:30:38;;;;;;;19.70;4.90;;;;;;;27.02;70.97;100192.98;213285;1277;142220;-68
2022/08/25 07:35:44;;;;;;;18.90;5.50;;;;;;;26.90;70.06;100193.51;213422;1277;140909;-68
2022/08/25 07:40:53;;;;;;;12.10;5.10;;;;;;;26.65;69.36;100197.32;213035;1277;140081;-67
2022/08/25 07:45:59;;;;;;;13.40;4.70;;;;;;;26.61;69.51;100193.32;213465;1277;231069;-67
2022/08/25 07:51:08;;;;;;;21.90;5.60;;;;;;;26.72;69.61;100189.56;212755;1277;139787;-66
2022/08/25 07:56:15;;;;;;;13.60;5.50;;;;;;;26.84;69.30;100194.71;213514;1277;140434;-66
2022/08/25 08:01:22;;;;;;;17.40;5.50;;;;;;;27.05;69.14;100192.70;213715;1277;140787;-67
2022/08/25 08:06:28;;;;;;;16.50;5.80;;;;;;;27.38;68.76;100192.14;213735;1277;140499;-68
2022/08/25 08:11:39;;;;;;;13.40;3.80;;;;;;;27.68;68.36;100188.22;214369;1277;140855;-68
2022/08/25 08:16:54;;;;;;;20.60;6.20;;;;;;;27.98;67.80;100190.34;214400;1277;141306;-65
2022/08/25 08:21:59;;;;;;;;;;;;;;;28.14;67.02;100188.63;214958;1277;140285;-67
2022/08/25 08:27:08;;;;;;;14.90;5.90;;;;;;;28.24;66.74;100183.63;216505;1277;128103;-67
2022/08/25 08:32:12;;;;;;;15.60;4.90;;;;;;;28.36;66.27;100182.71;213854;1277;142283;-66
2022/08/25 08:37:17;;;;;;;17.80;5.30;;;;;;;28.53;66.15;100179.85;215878;1277;141348;-67
2022/08/25 08:42:38;;;;;;;22.40;6.10;;;;;;;28.66;65.38;100179.91;215817;1277;141543;-68
2022/08/25 08:48:08;;;;;;;15.60;5.40;;;;;;;28.82;65.30;100180.16;215503;1277;141580;-67
2022/08/25 08:53:24;;;;;;;24.40;6.40;;;;;;;28.97;64.83;100177.81;214000;1277;141703;-66
2022/08/25 08:59:05;;;;;;;15.20;5.30;;;;;;;29.05;64.45;100174.04;213659;1277;141751;-68
2022/08/25 09:04:27;;;;;;;22.20;5.70;;;;;;;29.21;64.41;100171.19;213366;1277;141892;-68
2022/08/25 09:09:34;;;;;;;20.10;6.10;;;;;;;29.40;63.83;100170.02;213170;1277;141127;-68
2022/08/25 09:14:57;;;;;;;13.60;6.00;;;;;;;29.63;63.85;100166.65;212873;1277;164267;-68
2022/08/25 09:20:52;;;;;;;9.60;5.90;;;;;;;29.79;63.08;100164.75;213440;1277;141972;-69
2022/08/25 09:26:13;;;;;;;16.50;6.20;;;;;;;29.98;62.54;100159.25;213369;1277;140777;-69
2022/08/25 09:31:23;;;;;;;17.30;5.90;;;;;;;30.36;62.32;100158.33;213425;1277;142628;-71
2022/08/25 09:36:32;;;;;;;16.00;7.20;;;;;;;30.67;61.68;100157.08;212935;1277;140967;-68
2022/08/25 09:41:45;;;;;;;24.70;6.70;;;;;;;30.66;60.80;100159.65;213603;1277;140986;-68
2022/08/25 09:46:56;;;;;;;15.00;6.30;;;;;;;30.60;60.57;100151.58;212848;1277;141118;-66
2022/08/25 09:52:39;;;;;;;12.80;6.10;;;;;;;30.55;60.48;100153.66;213563;1277;141040;-67
2022/08/25 09:57:48;;;;;;;22.40;6.90;;;;;;;30.47;59.92;100146.23;212644;1277;142352;-69
2022/08/25 10:03:20;;;;;;;22.80;7.00;;;;;;;30.37;60.00;100138.84;214402;1277;141467;-67
2022/08/25 10:08:50;;;;;;;20.50;6.30;;;;;;;30.42;60.15;100130.88;214618;1277;140831;-68
2022/08/25 10:14:07;;;;;;;20.50;6.90;;;;;;;30.38;59.43;100125.83;215982;1277;141568;-70
2022/08/25 10:19:20;;;;;;;23.60;7.10;;;;;;;30.38;59.31;100121.26;215774;1277;141793;-69
2022/08/25 10:24:24;;;;;;;23.50;7.70;;;;;;;30.34;58.67;100109.40;215204;1277;141618;-67
2022/08/25 10:29:49;;;;;;;25.20;7.20;;;;;;;30.37;59.22;100097.89;215817;1277;141240;-68
2022/08/25 10:34:56;;;;;;;23.40;7.20;;;;;;;30.56;59.00;100094.66;215758;1277;141600;-71
2022/08/25 10:40:03;;;;;;;14.60;7.50;;;;;;;30.58;59.01;100091.23;215739;1276;140634;-69
2022/08/25 10:50:45;;;;;;;24.40;6.70;;;;;;;30.53;58.76;100089.64;214070;1277;141860;-71
2022/08/25 10:55:59;;;;;;;27.00;6.20;;;;;;;30.58;59.14;100083.29;213517;1277;141949;-68
2022/08/25 11:01:12;;;;;;;21.10;5.90;;;;;;;30.64;58.67;100082.48;213468;1277;142337;-68
2022/08/25 11:06:25;;;;;;;20.80;7.40;;;;;;;30.58;58.17;100075.52;213632;1276;140648;-69
2022/08/25 11:11:38;;;;;;;11.80;6.90;;;;;;;30.56;58.67;100081.05;213591;1276;140558;-70
2022/08/25 11:16:54;;;;;;;23.70;7.00;;;;;;;30.63;58.84;100072.64;213502;1277;141703;-68
2022/08/25 11:22:22;;;;;;;17.10;7.10;;;;;;;30.65;58.62;100069.52;213087;1277;142353;-66
2022/08/25 11:27:37;;;;;;;20.60;6.90;;;;;;;30.64;58.39;100061.09;213376;1277;141000;-68
2022/08/25 11:32:46;;;;;;;25.80;7.70;;;;;;;30.67;58.47;100059.27;213874;1276;142100;-70
2022/08/25 11:38:22;;;;;;;17.20;7.50;;;;;;;30.80;58.48;100056.02;212690;1277;141309;-66
2022/08/25 11:43:36;;;;;;;23.20;8.20;;;;;;;30.87;58.28;100048.77;213243;1277;141944;-66
2022/08/25 11:49:21;;;;;;;27.00;7.90;;;;;;;30.96;57.85;100047.52;213087;1277;142363;-69
2022/08/25 11:54:38;;;;;;;23.30;8.30;;;;;;;30.98;57.50;100049.29;213045;1277;141423;-67
2022/08/25 11:59:50;;;;;;;19.30;7.30;;;;;;;30.96;57.31;100047.27;213239;1277;140985;-69
2022/08/25 12:04:54;;;;;;;30.40;7.60;;;;;;;30.90;57.22;100048.48;213260;1278;141288;-68
2022/08/25 12:10:10;;;;;;;19.70;7.50;;;;;;;30.96;57.13;100050.89;213224;1277;141838;-69
2022/08/25 12:15:32;;;;;;;17.00;6.40;;;;;;;31.00;56.83;100044.52;214279;1276;140107;-69
2022/08/25 12:20:55;;;;;;;19.40;7.20;;;;;;;30.98;56.54;100034.64;215698;1276;142325;-68
2022/08/25 12:26:03;;;;;;;26.90;8.00;;;;;;;30.91;56.59;100032.94;215145;1277;140919;-69
2022/08/25 12:31:19;;;;;;;29.70;8.10;;;;;;;30.90;56.84;100031.27;215601;1276;140266;-69
2022/08/25 12:36:30;;;;;;;17.50;7.30;;;;;;;30.88;56.57;100030.99;215498;1277;140845;-72
2022/08/25 12:41:55;;;;;;;22.70;6.20;;;;;;;30.71;56.63;100027.45;213970;1277;141908;-69
2022/08/25 12:47:11;;;;;;;17.00;7.60;;;;;;;30.63;56.72;100023.02;215319;1277;140722;-70
2022/08/25 12:52:21;;;;;;;21.00;7.00;;;;;;;30.61;57.04;100024.55;214690;1277;141445;-69
2022/08/25 12:57:41;;;;;;;28.00;7.30;;;;;;;30.66;57.44;100020.98;213563;1276;140004;-68
2022/08/25 13:03:24;;;;;;;19.80;6.50;;;;;;;30.72;57.28;100015.12;213932;1277;141661;-68
2022/08/25 13:09:00;;;;;;;16.10;7.30;;;;;;;30.79;57.18;100014.23;212785;1276;141705;-67
2022/08/25 13:14:23;;;;;;;20.50;6.70;;;;;;;30.86;57.21;100012.48;212946;1277;140548;-67
2022/08/25 13:19:28;;;;;;;29.60;7.90;;;;;;;30.85;57.06;100010.35;213366;1276;142229;-68
2022/08/25 13:24:42;;;;;;;20.10;7.40;;;;;;;30.78;56.38;100003.13;213061;1277;141484;-68
2022/08/25 13:30:05;;;;;;;27.40;7.00;;;;;;;30.61;56.13;100002.16;213317;1277;141104;-70
2022/08/25 13:35:16;;;;;;;24.40;8.20;;;;;;;30.61;56.56;99998.92;212822;1277;141538;-68
2022/08/25 13:40:26;;;;;;;12.00;6.60;;;;;;;30.60;56.40;99998.75;213299;1277;141668;-69
2022/08/25 13:45:36;;;;;;;13.50;6.80;;;;;;;30.60;55.79;99990.27;213129;1276;141132;-68
2022/08/25 13:50:44;;;;;;;23.30;7.80;;;;;;;30.58;55.92;99988.11;212627;1277;140599;-73
2022/08/25 13:55:57;;;;;;;16.80;6.60;;;;;;;30.62;56.17;99988.18;213111;1277;141059;-74
2022/08/25 14:01:06;;;;;;;24.00;7.40;;;;;;;30.61;55.88;99980.08;213476;1275;142325;-71
2022/08/25 14:06:30;;;;;;;11.20;6.30;;;;;;;30.61;55.77;99979.19;213043;1277;143501;-71
2022/08/25 14:11:55;;;;;;;12.10;6.80;;;;;;;30.57;55.44;99975.77;213755;1276;140573;-71
2022/08/25 14:17:08;;;;;;;17.10;6.90;;;;;;;30.57;55.12;99969.92;215628;1277;140326;-71
2022/08/25 14:22:31;;;;;;;24.30;7.30;;;;;;;30.56;54.87;99963.85;215125;1277;140703;-71
2022/08/25 14:27:36;;;;;;;15.40;6.80;;;;;;;30.56;54.76;99955.76;215873;1275;141134;-70
2022/08/25 14:33:02;;;;;;;14.70;6.80;;;;;;;30.51;54.57;99955.73;215599;1277;141287;-70
2022/08/25 14:38:10;;;;;;;14.10;7.40;;;;;;;30.54;54.79;99948.79;215137;1277;141879;-69
2022/08/25 14:43:14;;;;;;;18.80;6.60;;;;;;;30.53;54.59;99948.53;214238;1277;142581;-70
2022/08/25 14:49:02;;;;;;;11.50;7.10;;;;;;;30.53;54.64;99943.90;213508;1277;140737;-68
2022/08/25 14:54:09;;;;;;;12.20;6.60;;;;;;;30.47;54.75;99935.60;212369;1283;140925;-68
2022/08/25 14:59:13;;;;;;;11.60;7.20;;;;;;;30.41;54.51;99930.85;213512;1277;141271;-68
2022/08/25 15:04:21;;;;;;;16.80;7.50;;;;;;;30.36;54.52;99930.73;213234;1277;140908;-69
2022/08/25 15:09:25;;;;;;;17.80;8.00;;;;;;;30.31;54.35;99926.39;213504;1277;141806;-68
2022/08/25 15:14:35;;;;;;;13.70;7.60;;;;;;;30.29;54.63;99927.83;213862;1277;140594;-69
2022/08/25 15:19:44;;;;;;;21.10;7.60;;;;;;;30.19;54.62;99926.48;213501;1277;142254;-68
2022/08/25 15:24:50;;;;;;;15.90;7.00;;;;;;;30.13;54.73;99927.14;213639;1276;139594;-67
2022/08/25 15:29:56;;;;;;;22.00;7.80;;;;;;;30.08;54.64;99925.30;214553;1276;140859;-68
2022/08/25 15:35:01;;;;;;;;;;;;;;;30.03;54.48;99922.66;214085;1275;139953;-68
2022/08/25 15:40:08;;;;;;;21.60;8.20;;;;;;;29.93;54.58;99919.93;213821;1277;125984;-68
2022/08/25 15:45:13;;;;;;;12.00;7.00;;;;;;;29.86;54.23;99920.26;214861;1277;140765;-69
2022/08/25 15:50:20;;;;;;;16.00;7.60;;;;;;;29.80;54.45;99915.56;213898;1275;140314;-70
2022/08/25 15:55:30;;;;;;;15.50;6.90;;;;;;;29.73;54.45;99907.77;214039;1275;140312;-67
2022/08/25 16:00:36;;;;;;;18.40;7.40;;;;;;;29.62;54.35;99900.55;214684;1276;139553;-66
2022/08/25 16:05:42;;;;;;;15.30;8.10;;;;;;;29.51;54.63;99899.52;213586;1277;140403;-69
2022/08/25 16:10:51;;;;;;;10.10;7.40;;;;;;;29.41;54.74;99900.91;213917;1277;141353;-69
2022/08/25 16:15:55;;;;;;;13.70;6.50;;;;;;;29.30;54.11;99891.88;215811;1276;140588;-69
2022/08/25 16:20:58;;;;;;;24.00;9.60;;;;;;;29.18;54.23;99887.41;215647;1276;140567;-68
2022/08/25 16:26:05;;;;;;;39.80;15.80;;;;;;;29.03;54.95;99885.89;215674;1276;140356;-69
2022/08/25 16:31:11;;;;;;;64.80;22.70;;;;;;;28.87;55.50;99879.90;215454;1276;140434;-70
2022/08/25 16:36:17;;;;;;;63.20;18.70;;;;;;;28.72;56.17;99875.73;215648;1275;140179;-70
2022/08/25 16:41:26;;;;;;;30.50;9.10;;;;;;;28.54;56.71;99875.56;213719;1277;141271;-72
2022/08/25 16:46:29;;;;;;;22.70;8.30;;;;;;;28.31;57.45;99880.52;213566;1277;140910;-69
2022/08/25 16:51:36;;;;;;;19.40;6.80;;;;;;;28.08;58.04;99881.54;214256;1277;140908;-67
2022/08/25 16:56:43;;;;;;;7.80;7.00;;;;;;;27.82;58.63;99879.14;213135;1277;140996;-68
2022/08/25 17:01:47;;;;;;;14.40;8.20;;;;;;;27.57;59.01;99886.73;213545;1276;141902;-69
2022/08/25 17:06:52;;;;;;;18.20;7.30;;;;;;;27.31;59.70;99890.14;214236;1275;140672;-70
2022/08/25 17:11:58;;;;;;;14.20;6.90;;;;;;;27.07;60.06;99890.96;213543;1277;140522;-69
2022/08/25 17:17:02;;;;;;;15.30;7.40;;;;;;;26.86;60.54;99887.33;213509;1277;142087;-69
2022/08/25 17:22:13;;;;;;;17.10;9.70;;;;;;;26.65;61.33;99890.67;213686;1277;210601;-68
2022/08/25 17:27:17;;;;;;;23.50;10.10;;;;;;;26.46;61.75;99889.15;213632;1276;140426;-68
2022/08/25 17:32:21;;;;;;;17.60;9.40;;;;;;;26.27;62.42;99895.09;213245;1276;140940;-67
2022/08/25 17:37:33;;;;;;;11.90;7.10;;;;;;;26.08;63.03;99897.20;213068;1276;140578;-66
2022/08/25 17:42:39;;;;;;;11.20;7.90;;;;;;;25.90;63.42;99900.73;213149;1276;140434;-68
2022/08/25 17:47:44;;;;;;;22.60;8.50;;;;;;;25.70;63.87;99898.39;213065;1277;140833;-68
2022/08/25 17:52:48;;;;;;;20.80;8.80;;;;;;;25.51;64.39;99905.60;212992;1277;139698;-68
2022/08/25 17:57:52;;;;;;;9.60;8.70;;;;;;;25.31;64.77;99904.10;214374;1276;140219;-72
2022/08/25 18:02:57;;;;;;;12.00;8.00;;;;;;;25.12;65.31;99905.66;214736;1277;151839;-67
2022/08/25 18:08:01;;;;;;;11.70;7.00;;;;;;;24.96;65.69;99902.96;214125;1277;140485;-69
2022/08/25 18:13:09;;;;;;;8.00;7.30;;;;;;;24.73;66.12;99902.81;215854;1277;141382;-68
2022/08/25 18:18:14;;;;;;;10.70;6.50;;;;;;;24.55;66.46;99901.05;215726;1277;142338;-68
2022/08/25 18:23:18;;;;;;;14.90;8.30;;;;;;;24.46;66.89;99900.21;215755;1276;140750;-70
2022/08/25 18:28:23;;;;;;;15.60;8.60;;;;;;;24.34;67.35;99898.82;215332;1277;139841;-69
2022/08/25 18:33:28;;;;;;;16.10;8.90;;;;;;;24.16;67.46;99898.34;215924;1277;141656;-70
2022/08/25 18:44:00;;;;;;;12.80;9.30;;;;;;;23.95;68.07;99901.29;214909;1277;142061;-70
2022/08/25 18:49:04;;;;;;;19.90;10.60;;;;;;;23.88;68.36;99899.80;212991;1277;141756;-70
2022/08/25 18:54:08;;;;;;;11.30;9.50;;;;;;;23.74;68.50;99902.46;213682;1277;139797;-69
2022/08/25 18:59:26;;;;;;;14.40;10.10;;;;;;;23.55;68.81;99903.33;213327;1276;140523;-69
2022/08/25 19:04:30;;;;;;;13.60;9.90;;;;;;;23.44;69.12;99901.08;214242;1276;140883;-67
2022/08/25 19:09:35;;;;;;;12.20;10.20;;;;;;;23.34;69.13;99906.33;214702;1277;139970;-69
2022/08/25 19:14:39;;;;;;;10.80;9.80;;;;;;;23.18;69.37;99911.33;215582;1277;140540;-69
2022/08/25 19:19:43;;;;;;;12.50;9.20;;;;;;;23.05;69.17;99910.98;213555;1277;140579;-68
2022/08/25 19:24:48;;;;;;;17.00;10.10;;;;;;;22.90;69.58;99905.16;214561;1277;140714;-71
2022/08/25 19:29:52;;;;;;;13.40;11.20;;;;;;;22.82;69.87;99907.14;214991;1276;140918;-70
2022/08/25 19:34:56;;;;;;;14.30;10.00;;;;;;;22.72;69.76;99910.54;213483;1275;141020;-72
2022/08/25 19:40:01;;;;;;;21.20;12.10;;;;;;;22.51;70.14;99910.34;213276;1277;140944;-70
2022/08/25 19:45:07;;;;;;;;;;;;;;;22.39;70.45;99904.77;214276;1277;140929;-68
2022/08/25 19:50:12;;;;;;;10.80;8.80;;;;;;;22.23;70.99;99905.92;213942;1277;127067;-71
2022/08/25 19:55:19;;;;;;;22.90;10.80;;;;;;;22.05;71.03;99906.04;214842;1276;140347;-71
2022/08/25 20:00:31;;;;;;;10.90;9.60;;;;;;;21.87;71.55;99905.64;214735;1277;140395;-71
2022/08/25 20:05:36;;;;;;;19.80;8.70;;;;;;;21.81;71.66;99906.34;214072;1277;142116;-71
2022/08/25 20:10:40;;;;;;;18.40;11.80;;;;;;;21.77;71.69;99910.89;215632;1277;142131;-70
2022/08/25 20:15:44;;;;;;;19.20;10.80;;;;;;;21.71;71.92;99909.05;215799;1276;140854;-70
2022/08/25 20:20:49;;;;;;;18.10;11.10;;;;;;;21.67;72.07;99909.00;215573;1276;141181;-70
2022/08/25 20:25:54;;;;;;;9.00;7.60;;;;;;;21.53;71.95;99901.91;215714;1275;140389;-68
2022/08/25 20:30:58;;;;;;;13.70;10.10;;;;;;;21.38;72.43;99903.46;215654;1277;141314;-71
2022/08/25 20:36:03;;;;;;;11.70;9.30;;;;;;;21.31;72.71;99906.16;215726;1276;141222;-67
2022/08/25 20:41:09;;;;;;;13.20;10.70;;;;;;;21.27;72.64;99908.19;215602;1277;140839;-68
2022/08/25 20:46:13;;;;;;;13.60;11.10;;;;;;;21.14;72.67;99909.53;215541;1276;141190;-68
2022/08/25 20:51:23;;;;;;;18.60;10.70;;;;;;;20.98;72.95;99906.48;215203;1277;140422;-67
2022/08/25 20:56:29;;;;;;;12.10;10.90;;;;;;;20.88;73.24;99906.49;215631;1277;141246;-67
2022/08/25 21:01:40;;;;;;;17.10;10.20;;;;;;;20.83;73.42;99904.90;213976;1277;142113;-67
2022/08/25 21:06:45;;;;;;;16.50;10.80;;;;;;;20.79;73.43;99902.96;215367;1275;141585;-68
2022/08/25 21:11:52;;;;;;;16.30;10.40;;;;;;;20.75;73.45;99902.40;215694;1274;140903;-67
2022/08/25 21:16:55;;;;;;;12.40;11.10;;;;;;;20.61;73.38;99901.40;214303;1277;140384;-67
2022/08/25 21:22:00;;;;;;;15.70;10.40;;;;;;;20.51;73.64;99901.34;215664;1277;141471;-67
2022/08/25 21:27:05;;;;;;;12.40;11.00;;;;;;;20.48;73.71;99903.29;215306;1276;140948;-67
2022/08/25 21:32:09;;;;;;;19.40;9.70;;;;;;;20.46;73.95;99898.36;214215;1277;141488;-70
2022/08/25 21:37:14;;;;;;;13.20;10.30;;;;;;;20.44;73.88;99901.15;214151;1277;141361;-70
2022/08/25 21:42:21;;;;;;;11.90;9.40;;;;;;;20.37;73.92;99895.02;213720;1277;141866;-69
2022/08/25 21:47:25;;;;;;;13.90;9.70;;;;;;;20.31;73.83;99897.27;215159;1277;142764;-70
2022/08/25 21:52:29;;;;;;;10.60;9.40;;;;;;;20.26;74.09;99895.33;213821;1277;142542;-69
2022/08/25 21:57:33;;;;;;;12.10;8.90;;;;;;;20.23;74.12;99890.54;214464;1277;142535;-70
2022/08/25 22:02:38;;;;;;;12.20;10.50;;;;;;;20.20;74.21;99889.73;214882;1277;142218;-70
2022/08/25 22:07:45;;;;;;;12.70;11.10;;;;;;;20.15;74.19;99890.80;215401;1276;140516;-68
2022/08/25 22:12:49;;;;;;;18.40;10.20;;;;;;;20.07;74.30;99885.13;215815;1276;140750;-68
2022/08/25 22:17:52;;;;;;;12.80;10.10;;;;;;;20.01;74.26;99883.44;215675;1277;142218;-69
2022/08/25 22:22:56;;;;;;;15.40;10.50;;;;;;;19.96;74.27;99880.52;215477;1276;140938;-67
2022/08/25 22:28:03;;;;;;;19.80;11.00;;;;;;;19.92;74.14;99877.00;215670;1276;142131;-67
2022/08/25 22:33:06;;;;;;;12.60;9.80;;;;;;;19.86;74.30;99873.54;215620;1276;142362;-68
2022/08/25 22:38:11;;;;;;;8.10;7.30;;;;;;;19.81;74.15;99872.63;215663;1277;141147;-73
2022/08/25 22:43:16;;;;;;;12.40;8.10;;;;;;;19.74;74.10;99867.91;213895;1279;211802;-68
2022/08/25 22:48:20;;;;;;;11.60;8.50;;;;;;;19.68;74.02;99865.34;215557;1277;140919;-68
2022/08/25 22:53:26;;;;;;;10.70;8.20;;;;;;;19.63;74.10;99861.45;215561;1277;140605;-68
2022/08/25 22:58:31;;;;;;;15.10;9.70;;;;;;;19.54;74.15;99853.48;214192;1277;140291;-70
2022/08/25 23:03:36;;;;;;;14.40;8.80;;;;;;;19.47;74.33;99846.61;215378;1277;141853;-72
2022/08/25 23:08:47;;;;;;;10.30;9.30;;;;;;;19.40;74.30;99848.23;214033;1276;141711;-72
2022/08/25 23:13:56;;;;;;;14.10;9.10;;;;;;;19.34;74.49;99842.77;214027;1277;140784;-72
2022/08/25 23:19:03;;;;;;;12.20;9.20;;;;;;;19.25;74.28;99837.71;213313;1277;140850;-71
2022/08/25 23:24:09;;;;;;;11.50;9.50;;;;;;;19.06;74.47;99831.92;214416;1277;139973;-71
2022/08/25 23:29:16;;;;;;;9.40;8.50;;;;;;;18.96;74.55;99833.45;213729;1277;141136;-68
2022/08/25 23:34:21;;;;;;;15.40;7.80;;;;;;;18.88;74.61;99836.47;213179;1277;142516;-68